Time;durP1;ratioP1;P1;durP2;ratioP2;P2;SDS_P1;SDS_P2;PMS_P1;PMS_P2;Temp;Humidity;BMP_temperature;BMP_pressure;BME280_temperature;BME280_humidity;BME280_pressure;Samples;Min_cycle;Max_cycle;Signal;HPM_P1;HPM_P2
2022/03/17 00:01:49;;;;;;;;;;;;;;;7.75;58.67;98717.06;5011550;28;20388;-88
2022/03/17 00:05:02;;;;;;;;;;;;;;;7.66;59.07;98718.69;5036749;28;19932;-88
2022/03/17 00:07:36;;;;;;;;;;;;;;;7.71;58.58;98727.59;5032226;28;19926;-88
2022/03/17 00:10:15;;;;;;;;;;;;;;;7.69;58.75;98735.19;5015841;28;19996;-87
2022/03/17 00:12:44;;;;;;;;;;;;;;;7.73;58.36;98725.44;5014835;28;19926;-87
2022/03/17 00:15:15;;;;;;;;;;;;;;;7.69;58.74;98729.78;4997332;28;19925;-87
2022/03/17 00:17:45;;;;;;;;;;;;;;;7.91;58.62;98728.66;5013096;28;19917;-89
2022/03/17 00:20:15;;;;;;;;;;;;;;;7.87;58.12;98729.19;5023446;28;19926;-88
2022/03/17 00:22:45;;;;;;;;;;;;;;;7.89;57.65;98734.34;5036437;28;19920;-88
2022/03/17 00:25:14;;;;;;;;;;;;;;;7.76;58.45;98729.50;5018044;28;19929;-88
2022/03/17 00:27:42;;;;;;;;;;;;;;;7.59;58.98;98719.78;5018674;28;19926;-88
2022/03/17 00:30:13;;;;;;;;;;;;;;;7.82;59.56;98725.69;5026900;28;19925;-88
2022/03/17 00:32:42;;;;;;;;;;;;;;;7.63;58.82;98717.34;5002216;28;19926;-87
2022/03/17 00:50:20;;;;;;;;;;;;;;;7.28;58.91;98678.44;6094440;23;19928;-88
2022/03/17 03:32:12;;;;;;;;;;;;;;;7.12;58.03;98666.00;3688311;23;20114;-88
2022/03/17 03:38:03;;;;;;;;;;;;;;;7.02;58.13;98674.09;5130603;23;19925;-88
2022/03/17 03:40:40;;;;;;;;;;;;;;;7.16;57.24;98677.91;5015808;28;19928;-86
2022/03/17 03:43:50;;;;;;;;;;;;;;;7.38;56.48;98672.22;5083368;23;19914;-85
2022/03/17 03:46:29;;;;;;;;;;;;;;;7.21;57.17;98685.19;5031175;28;19929;-87
2022/03/17 03:49:31;;;;;;;;;;;;;;;7.43;56.66;98687.63;5202098;22;20327;-87
2022/03/17 03:52:28;;;;;;;;;;;;;;;7.20;57.55;98700.59;5705329;23;19996;-88
2022/03/17 03:55:00;;;;;;;;;;;;;;;7.03;58.19;98705.44;5025069;28;19935;-87
2022/03/17 03:57:31;;;;;;;;;;;;;;;7.08;57.91;98710.84;5041538;28;19929;-87
2022/03/17 03:59:59;;;;;;;;;;;;;;;7.09;58.10;98718.69;5036918;28;19932;-88
2022/03/17 04:02:27;;;;;;;;;;;;;;;6.92;58.57;98720.81;5018853;28;20370;-86
2022/03/17 04:04:57;;;;;;;;;;;;;;;6.96;58.23;98721.91;5014802;28;19965;-88
2022/03/17 04:07:25;;;;;;;;;;;;;;;6.98;58.41;98729.78;5028528;28;19925;-87
2022/03/17 04:09:54;;;;;;;;;;;;;;;6.90;59.14;98732.97;5013264;28;19925;-88
2022/03/17 04:12:23;;;;;;;;;;;;;;;6.94;58.62;98732.19;5013847;28;19974;-87
2022/03/17 04:14:52;;;;;;;;;;;;;;;7.01;58.39;98735.44;5025954;28;19932;-87
2022/03/17 04:17:20;;;;;;;;;;;;;;;7.00;58.69;98739.22;5009162;28;20005;-87
2022/03/17 04:19:48;;;;;;;;;;;;;;;7.07;58.19;98737.06;5020519;28;19925;-88
2022/03/17 04:22:18;;;;;;;;;;;;;;;7.17;57.51;98730.03;5034957;28;19929;-87
2022/03/17 04:24:47;;;;;;;;;;;;;;;7.20;57.59;98726.81;5014690;28;19925;-85
2022/03/17 04:27:16;;;;;;;;;;;;;;;7.47;56.40;98737.38;5036270;28;19972;-87
2022/03/17 04:29:45;;;;;;;;;;;;;;;7.54;56.70;98736.00;5021201;28;19936;-86
2022/03/17 04:32:49;;;;;;;;;;;;;;;7.37;57.29;98731.97;5145811;22;19956;-90
2022/03/17 04:36:12;;;;;;;;;;;;;;;7.48;56.80;98739.78;5060591;28;19933;-89
2022/03/17 04:38:49;;;;;;;;;;;;;;;7.50;56.64;98734.91;5023278;28;19984;-89
2022/03/17 04:41:20;;;;;;;;;;;;;;;7.61;55.89;98733.00;5020384;28;19929;-90
2022/03/17 04:43:48;;;;;;;;;;;;;;;7.60;56.30;98739.50;5024962;28;19931;-89
2022/03/17 04:46:21;;;;;;;;;;;;;;;7.47;56.09;98734.66;5021278;28;19917;-89
2022/03/17 04:48:49;;;;;;;;;;;;;;;7.57;56.13;98743.59;5042450;28;19948;-89
2022/03/17 04:51:19;;;;;;;;;;;;;;;7.50;56.82;98743.03;5034109;28;19921;-89
2022/03/17 04:53:49;;;;;;;;;;;;;;;7.31;57.50;98752.78;5018458;28;19925;-90
2022/03/17 04:56:20;;;;;;;;;;;;;;;7.44;56.78;98754.13;5012456;28;19929;-90
2022/03/17 04:58:48;;;;;;;;;;;;;;;7.40;56.52;98756.53;5019685;28;19957;-90
2022/03/17 05:01:17;;;;;;;;;;;;;;;7.23;57.83;98758.69;5010488;28;19925;-90
2022/03/17 05:03:46;;;;;;;;;;;;;;;7.39;57.33;98760.34;5009467;28;19975;-91
2022/03/17 05:06:16;;;;;;;;;;;;;;;7.63;56.19;98757.09;5036595;28;19909;-89
2022/03/17 05:12:05;;;;;;;;;;;;;;;7.06;58.02;98761.66;5337363;22;19926;-88
2022/03/17 05:31:23;;;;;;;;;;;;;;;7.05;58.60;98776.25;5414333;22;19926;-87
2022/03/17 05:37:30;;;;;;;;;;;;;;;7.46;56.72;98777.13;5191369;23;19933;-86
2022/03/17 05:44:03;;;;;;;;;;;;;;;7.45;57.01;98777.38;5400387;23;19909;-87
2022/03/17 05:50:20;;;;;;;;;;;;;;;7.06;58.01;98780.56;5061838;23;19934;-86
2022/03/17 05:53:33;;;;;;;;;;;;;;;7.17;58.17;98781.38;5067745;23;19984;-87
2022/03/17 05:56:17;;;;;;;;;;;;;;;7.08;58.12;98781.94;5038366;28;19909;-87
2022/03/17 05:58:46;;;;;;;;;;;;;;;6.93;58.75;98786.47;5008414;28;19925;-88
2022/03/17 06:11:10;;;;;;;;;;;;;;;7.04;58.53;98797.03;4973167;28;19930;-75
2022/03/17 06:13:39;;;;;;;;;;;;;;;7.16;58.06;98796.78;4972405;28;19934;-75
2022/03/17 06:16:10;;;;;;;;;;;;;;;7.16;58.65;98801.41;4967988;28;20296;-76
2022/03/17 06:18:40;;;;;;;;;;;;;;;7.09;58.49;98807.88;4987416;28;19937;-77
2022/03/17 06:21:11;;;;;;;;;;;;;;;7.10;58.03;98814.09;4943441;28;19934;-78
2022/03/17 06:23:40;;;;;;;;;;;;;;;7.08;58.41;98811.66;4975277;28;20302;-77
2022/03/17 06:26:25;;;;;;;;;;;;;;;7.23;58.35;98812.75;4982948;28;19916;-80
2022/03/17 06:28:53;;;;;;;;;;;;;;;7.00;59.46;98819.44;4989813;28;20020;-77
2022/03/17 06:31:39;;;;;;;;;;;;;;;7.00;59.16;98814.06;4981096;28;19926;-77
2022/03/17 06:34:09;;;;;;;;;;;;;;;6.78;59.40;98817.75;4974756;28;19926;-76
2022/03/17 06:36:38;;;;;;;;;;;;;;;6.95;59.18;98811.34;4975162;28;19930;-76
2022/03/17 06:39:07;;;;;;;;;;;;;;;7.02;58.97;98818.09;4979857;28;19934;-76
2022/03/17 06:41:35;;;;;;;;;;;;;;;6.98;59.31;98821.63;4992578;28;19944;-77
2022/03/17 06:44:04;;;;;;;;;;;;;;;6.93;59.75;98825.13;4954262;28;19933;-77
2022/03/17 06:46:32;;;;;;;;;;;;;;;7.23;58.39;98821.66;4971698;28;19926;-77
2022/03/17 06:49:04;;;;;;;;;;;;;;;7.20;58.55;98818.72;4977735;28;19926;-77
2022/03/17 06:51:32;;;;;;;;;;;;;;;7.15;58.97;98818.69;4975974;28;19930;-77
2022/03/17 06:54:00;;;;;;;;;;;;;;;7.15;59.02;98814.09;4969690;28;19932;-77
2022/03/17 06:56:34;;;;;;;;;;;;;;;7.23;58.61;98824.38;4997064;28;19934;-77
2022/03/17 06:59:07;;;;;;;;;;;;;;;7.08;59.00;98818.91;4970009;28;19933;-78
2022/03/17 07:01:35;;;;;;;;;;;;;;;6.96;59.68;98826.47;4990889;28;20403;-77
2022/03/17 07:04:05;;;;;;;;;;;;;;;6.85;60.43;98827.50;4978476;28;19933;-77
2022/03/17 07:06:33;;;;;;;;;;;;;;;7.01;59.66;98827.28;4975506;28;20342;-77
2022/03/17 07:09:05;;;;;;;;;;;;;;;7.16;59.27;98817.59;4961747;28;20448;-77
2022/03/17 07:11:35;;;;;;;;;;;;;;;7.29;59.35;98823.28;4958219;28;20416;-78
2022/03/17 07:14:07;;;;;;;;;;;;;;;7.28;59.04;98821.69;4960204;28;19926;-78
2022/03/17 07:16:37;;;;;;;;;;;;;;;7.37;58.91;98824.69;4968032;28;19926;-77
2022/03/17 07:19:07;;;;;;;;;;;;;;;7.39;58.87;98827.09;4965034;28;20472;-77
2022/03/17 07:21:35;;;;;;;;;;;;;;;7.45;59.08;98831.44;4969421;28;19933;-77
2022/03/17 07:24:05;;;;;;;;;;;;;;;7.54;58.42;98836.06;4952940;28;20397;-78
2022/03/17 07:26:35;;;;;;;;;;;;;;;7.76;57.58;98826.88;4953875;28;20455;-77
2022/03/17 07:29:04;;;;;;;;;;;;;;;7.71;57.99;98833.09;4957160;28;20381;-77
2022/03/17 07:31:34;;;;;;;;;;;;;;;7.61;58.02;98830.38;4957680;28;19930;-77
2022/03/17 07:34:02;;;;;;;;;;;;;;;7.70;58.06;98838.78;4954726;28;19956;-77
2022/03/17 07:36:32;;;;;;;;;;;;;;;7.70;58.16;98834.16;4964400;28;19926;-78
2022/03/17 07:39:03;;;;;;;;;;;;;;;7.55;58.44;98834.97;4958186;28;19934;-76
2022/03/17 07:41:32;;;;;;;;;;;;;;;7.77;57.87;98842.00;4969282;28;20392;-77
2022/03/17 07:44:02;;;;;;;;;;;;;;;7.69;58.18;98839.88;4963792;28;19930;-76
2022/03/17 07:46:53;;;;;;;;;;;;;;;7.85;58.10;98836.06;4952169;28;19945;-77
2022/03/17 07:49:36;;;;;;;;;;;;;;;8.05;57.35;98835.25;4938119;28;20037;-77
2022/03/17 07:52:04;;;;;;;;;;;;;;;7.99;57.73;98828.22;4959956;28;19957;-76
2022/03/17 07:54:32;;;;;;;;;;;;;;;8.01;57.56;98839.59;4979756;28;19936;-77
2022/03/17 07:57:01;;;;;;;;;;;;;;;8.11;57.25;98839.59;4959377;28;19926;-77
2022/03/17 07:59:31;;;;;;;;;;;;;;;8.39;56.82;98836.31;4961607;28;19934;-76
2022/03/17 08:01:59;;;;;;;;;;;;;;;8.37;56.58;98829.56;4969728;28;19927;-77
2022/03/17 08:04:27;;;;;;;;;;;;;;;8.45;56.74;98839.81;4967843;28;19980;-76
2022/03/17 08:07:00;;;;;;;;;;;;;;;8.30;56.82;98843.31;4961603;28;19944;-77
2022/03/17 08:09:54;;;;;;;;;;;;;;;8.38;56.24;98850.13;4975876;28;19933;-78
2022/03/17 08:12:22;;;;;;;;;;;;;;;8.08;57.21;98850.94;4969895;28;20315;-78
2022/03/17 08:14:53;;;;;;;;;;;;;;;8.29;57.23;98860.66;5000690;28;20688;-80
2022/03/17 08:17:23;;;;;;;;;;;;;;;7.92;57.99;98857.44;4990083;28;19913;-79
2022/03/17 08:19:53;;;;;;;;;;;;;;;8.04;57.61;98866.09;5005717;28;19934;-79
2022/03/17 08:22:21;;;;;;;;;;;;;;;8.14;57.99;98864.19;5007213;28;19926;-79
2022/03/17 08:24:49;;;;;;;;;;;;;;;8.32;57.11;98868.25;4968046;28;19948;-79
2022/03/17 08:27:18;;;;;;;;;;;;;;;8.51;56.29;98875.81;4985030;28;19953;-79
2022/03/17 08:32:42;;;;;;;;;;;;;;;8.36;57.67;98880.19;4981378;28;20289;-80
2022/03/17 08:35:13;;;;;;;;;;;;;;;8.48;56.73;98885.31;4985962;28;19921;-80
2022/03/17 08:37:41;;;;;;;;;;;;;;;8.39;56.96;98892.38;5005830;28;20404;-80
2022/03/17 08:40:17;;;;;;;;;;;;;;;8.65;55.51;98893.94;5031276;28;19926;-80
2022/03/17 08:42:50;;;;;;;;;;;;;;;8.79;55.81;98894.19;5018484;28;19937;-80
2022/03/17 08:50:59;;;;;;;;;;;;;;;8.96;55.34;98899.28;4991994;28;19940;-74
2022/03/17 08:53:30;;;;;;;;;;;;;;;8.76;55.61;98905.56;4985626;28;20386;-75
2022/03/17 08:56:01;;;;;;;;;;;;;;;9.03;55.53;98907.13;4991516;28;19971;-76
2022/03/17 08:58:34;;;;;;;;;;;;;;;9.09;54.09;98914.94;4990350;28;19933;-75
2022/03/17 09:01:02;;;;;;;;;;;;;;;9.28;53.62;98917.88;4971556;28;19952;-78
2022/03/17 09:03:37;;;;;;;;;;;;;;;9.43;53.51;98914.28;4978504;28;20523;-75
2022/03/17 09:06:12;;;;;;;;;;;;;;;9.44;53.05;98910.47;4969309;28;20004;-74
2022/03/17 09:08:41;;;;;;;;;;;;;;;9.49;53.85;98904.22;4950337;28;20284;-75
2022/03/17 09:11:09;;;;;;;;;;;;;;;9.51;53.53;98900.09;4954741;28;19934;-75
2022/03/17 09:13:39;;;;;;;;;;;;;;;9.40;53.79;98896.66;4964445;28;19926;-74
2022/03/17 09:16:08;;;;;;;;;;;;;;;9.33;53.60;98898.84;4958478;28;19926;-75
2022/03/17 09:18:42;;;;;;;;;;;;;;;9.52;53.19;98890.06;4954263;28;19934;-75
2022/03/17 09:21:13;;;;;;;;;;;;;;;9.63;53.69;98907.91;4935907;28;19934;-75
2022/03/17 09:23:42;;;;;;;;;;;;;;;9.77;53.61;98898.06;4953324;28;19949;-75
2022/03/17 09:26:14;;;;;;;;;;;;;;;9.76;52.57;98901.06;4960955;28;19934;-75
2022/03/17 09:28:43;;;;;;;;;;;;;;;9.79;52.17;98895.84;4948330;28;19934;-75
2022/03/17 09:31:13;;;;;;;;;;;;;;;9.84;52.52;98890.41;4949338;28;20012;-75
2022/03/17 09:33:45;;;;;;;;;;;;;;;10.07;52.58;98901.66;4959210;28;20407;-75
2022/03/17 09:36:13;;;;;;;;;;;;;;;10.16;52.57;98898.03;4954324;28;19932;-76
2022/03/17 09:38:42;;;;;;;;;;;;;;;10.17;52.46;98899.66;4967988;28;19930;-76
2022/03/17 09:41:35;;;;;;;;;;;;;;;9.97;52.65;98903.34;4956012;28;19961;-76
2022/03/17 09:44:05;;;;;;;;;;;;;;;9.90;52.35;98905.56;4947123;28;19985;-76
2022/03/17 09:46:33;;;;;;;;;;;;;;;9.95;51.75;98908.22;4948460;28;20296;-77
2022/03/17 09:49:04;;;;;;;;;;;;;;;10.02;51.13;98909.84;4948834;28;20385;-76
2022/03/17 09:54:25;;;;;;;;;;;;;;;10.11;50.85;98914.34;4952886;28;20873;-77
2022/03/17 09:56:54;;;;;;;;;;;;;;;10.08;49.86;98903.28;4965709;28;19926;-77
2022/03/17 09:59:23;;;;;;;;;;;;;;;9.54;51.77;98906.91;4967345;28;19926;-74
2022/03/17 10:01:51;;;;;;;;;;;;;;;9.69;51.03;98906.78;4933197;28;20377;-74
2022/03/17 10:04:21;;;;;;;;;;;;;;;9.92;50.62;98906.09;4954955;28;19934;-76
2022/03/17 10:06:50;;;;;;;;;;;;;;;10.01;50.17;98909.00;4948047;28;19932;-77
2022/03/17 10:09:21;;;;;;;;;;;;;;;10.01;50.86;98919.06;4946837;28;19926;-75
2022/03/17 10:12:00;;;;;;;;;;;;;;;10.21;49.81;98924.34;4940976;28;20439;-77
2022/03/17 10:14:35;;;;;;;;;;;;;;;10.21;50.46;98924.34;4952001;28;19970;-75
2022/03/17 10:17:04;;;;;;;;;;;;;;;10.15;49.54;98922.75;4948837;28;20289;-75
2022/03/17 10:19:34;;;;;;;;;;;;;;;9.86;50.00;98920.81;4971625;28;19930;-75
2022/03/17 10:22:12;;;;;;;;;;;;;;;10.09;49.34;98921.19;4954990;28;20036;-75
2022/03/17 10:24:50;;;;;;;;;;;;;;;10.08;49.60;98919.56;4947537;28;20434;-75
2022/03/17 10:27:24;;;;;;;;;;;;;;;10.10;48.50;98934.47;4955186;28;19926;-76
2022/03/17 10:30:06;;;;;;;;;;;;;;;10.15;48.62;98925.47;4927498;28;19985;-74
2022/03/17 10:32:36;;;;;;;;;;;;;;;10.33;49.19;98922.06;4951545;28;20398;-75
2022/03/17 10:35:08;;;;;;;;;;;;;;;10.52;49.31;98927.63;4964568;28;20028;-75
2022/03/17 10:37:42;;;;;;;;;;;;;;;10.16;48.38;98922.47;4959923;28;19926;-75
2022/03/17 10:40:14;;;;;;;;;;;;;;;10.52;49.16;98918.66;4938932;28;19926;-75
2022/03/17 10:42:42;;;;;;;;;;;;;;;10.51;49.11;98923.31;4968584;28;19988;-75
2022/03/17 10:45:12;;;;;;;;;;;;;;;10.57;48.60;98921.34;4944961;28;19926;-75
2022/03/17 10:48:06;;;;;;;;;;;;;;;10.42;47.20;98920.38;4950733;28;19930;-76
2022/03/17 10:50:39;;;;;;;;;;;;;;;10.33;47.61;98921.28;4940312;28;19949;-75
2022/03/17 10:53:07;;;;;;;;;;;;;;;10.46;47.39;98926.06;4957472;28;19940;-75
2022/03/17 10:55:38;;;;;;;;;;;;;;;10.49;48.43;98931.75;4973979;28;20300;-75
2022/03/17 10:58:14;;;;;;;;;;;;;;;10.81;47.69;98937.66;4940233;28;20045;-73
2022/03/17 11:00:48;;;;;;;;;;;;;;;10.79;47.10;98942.59;4971989;28;19930;-75
2022/03/17 11:03:19;;;;;;;;;;;;;;;10.45;46.22;98936.13;4958669;28;19937;-74
2022/03/17 11:05:51;;;;;;;;;;;;;;;10.05;47.48;98941.84;4968167;28;19976;-73
2022/03/17 11:08:20;;;;;;;;;;;;;;;10.26;47.97;98945.25;4960092;28;19929;-75
2022/03/17 11:10:51;;;;;;;;;;;;;;;10.49;47.81;98944.50;4976243;28;19925;-74
2022/03/17 11:16:12;;;;;;;;;;;;;;;10.39;46.87;98937.25;4969216;28;20104;-76
2022/03/17 11:18:43;;;;;;;;;;;;;;;10.49;48.01;98939.06;4959809;28;19930;-76
2022/03/17 11:21:16;;;;;;;;;;;;;;;10.65;47.01;98940.56;4976087;28;19930;-77
2022/03/17 11:23:55;;;;;;;;;;;;;;;10.67;46.05;98937.56;4969043;28;20297;-77
2022/03/17 11:26:25;;;;;;;;;;;;;;;10.73;45.78;98941.84;4979668;28;19930;-77
2022/03/17 11:28:58;;;;;;;;;;;;;;;10.53;46.72;98936.59;4990988;28;19926;-76
2022/03/17 11:31:27;;;;;;;;;;;;;;;10.42;47.34;98942.13;4960368;28;19925;-77
2022/03/17 11:33:58;;;;;;;;;;;;;;;10.54;47.66;98935.50;4977685;28;19929;-76
2022/03/17 11:36:31;;;;;;;;;;;;;;;10.66;46.08;98933.22;4975079;28;19930;-77
2022/03/17 11:39:14;;;;;;;;;;;;;;;10.86;46.61;98929.47;4975465;28;20511;-77
2022/03/17 11:41:44;;;;;;;;;;;;;;;11.02;47.23;98934.47;4979130;28;19977;-77
2022/03/17 11:44:14;;;;;;;;;;;;;;;11.09;46.49;98930.59;4972069;28;19940;-77
2022/03/17 11:46:43;;;;;;;;;;;;;;;11.02;46.54;98930.91;4955569;28;19973;-78
2022/03/17 11:49:18;;;;;;;;;;;;;;;11.07;46.36;98930.84;4987168;28;19965;-77
2022/03/17 11:51:56;;;;;;;;;;;;;;;10.61;46.75;98925.94;4999612;28;19925;-77
2022/03/17 11:54:24;;;;;;;;;;;;;;;10.53;47.75;98925.72;4972954;28;20032;-77
2022/03/17 11:56:53;;;;;;;;;;;;;;;10.67;46.46;98921.25;4973595;28;19930;-77
2022/03/17 11:59:22;;;;;;;;;;;;;;;10.80;47.06;98931.44;4972658;28;19941;-77
2022/03/17 12:01:50;;;;;;;;;;;;;;;11.06;46.38;98917.56;4969524;28;19933;-77
2022/03/17 12:04:25;;;;;;;;;;;;;;;11.10;45.52;98924.84;4981626;28;19926;-77
2022/03/17 12:10:17;;;;;;;;;;;;;;;11.28;45.50;98934.16;4985732;28;19929;-88
2022/03/17 12:12:46;;;;;;;;;;;;;;;11.36;44.64;98936.25;4993797;28;20190;-94
2022/03/17 12:15:14;;;;;;;;;;;;;;;11.41;45.15;98940.81;4979084;28;19930;-93
2022/03/17 12:17:42;;;;;;;;;;;;;;;11.48;45.62;98942.06;4978601;28;19933;-93
2022/03/17 12:20:14;;;;;;;;;;;;;;;11.47;44.58;98940.44;4976522;28;19925;-89
2022/03/17 12:22:48;;;;;;;;;;;;;;;11.54;44.07;98935.44;4994303;28;20016;-89
2022/03/17 12:25:18;;;;;;;;;;;;;;;11.54;44.06;98938.16;4992646;28;19930;-89
2022/03/17 12:27:50;;;;;;;;;;;;;;;11.35;44.19;98939.25;4999541;28;19930;-89
2022/03/17 12:30:21;;;;;;;;;;;;;;;11.40;44.68;98940.00;5000997;28;19944;-89
2022/03/17 12:32:49;;;;;;;;;;;;;;;11.40;45.51;98939.16;4998197;28;19941;-88
2022/03/17 12:35:17;;;;;;;;;;;;;;;11.27;45.33;98937.97;4971894;28;19958;-89
2022/03/17 12:37:45;;;;;;;;;;;;;;;11.19;45.58;98944.06;4991317;28;19932;-90
2022/03/17 12:40:13;;;;;;;;;;;;;;;11.44;44.52;98949.19;4990096;28;19945;-91
2022/03/17 12:42:48;;;;;;;;;;;;;;;11.24;44.90;98952.19;4994418;28;19925;-90
2022/03/17 12:45:17;;;;;;;;;;;;;;;11.33;44.45;98955.06;4989378;28;19929;-90
2022/03/17 12:47:47;;;;;;;;;;;;;;;11.00;45.43;98954.88;4990425;28;19930;-90
2022/03/17 12:50:15;;;;;;;;;;;;;;;11.33;45.49;98955.84;4974245;28;19976;-91
2022/03/17 12:52:47;;;;;;;;;;;;;;;11.37;45.69;98953.38;4976102;28;20025;-94
2022/03/17 12:55:16;;;;;;;;;;;;;;;11.43;44.67;98952.22;4992640;28;19926;-90
2022/03/17 12:57:49;;;;;;;;;;;;;;;11.39;45.16;98954.69;4993684;28;19930;-93
2022/03/17 13:00:25;;;;;;;;;;;;;;;11.57;43.55;98952.31;4980346;28;20655;-89
2022/03/17 13:02:54;;;;;;;;;;;;;;;11.60;45.10;98954.44;4977268;28;19934;-91
2022/03/17 13:08:11;;;;;;;;;;;;;;;11.50;43.83;98948.03;4988691;28;19970;-90
2022/03/17 13:16:35;;;;;;;;;;;;;;;11.60;43.76;98952.53;4953591;28;19927;-92
2022/03/17 13:19:03;;;;;;;;;;;;;;;11.79;44.60;98952.56;4968546;28;19930;-89
2022/03/17 13:21:31;;;;;;;;;;;;;;;11.71;44.15;98950.47;4978070;28;19949;-88
2022/03/17 13:23:59;;;;;;;;;;;;;;;11.75;43.67;98956.97;4955464;28;19930;-86
2022/03/17 13:26:28;;;;;;;;;;;;;;;11.63;43.25;98957.41;4969666;28;19941;-89
2022/03/17 13:29:01;;;;;;;;;;;;;;;11.66;44.24;98959.50;4967612;28;19926;-88
2022/03/17 13:31:36;;;;;;;;;;;;;;;11.66;44.67;98964.97;4945547;28;21268;-88
2022/03/17 13:34:04;;;;;;;;;;;;;;;11.63;43.71;98957.41;4986062;28;19965;-88
2022/03/17 13:36:51;;;;;;;;;;;;;;;11.74;44.16;98964.31;4961869;28;19990;-82
2022/03/17 13:39:19;;;;;;;;;;;;;;;11.63;44.11;98964.75;4959083;28;19930;-84
2022/03/17 13:41:56;;;;;;;;;;;;;;;11.76;43.41;98953.94;4987438;28;19938;-85
2022/03/17 13:44:32;;;;;;;;;;;;;;;11.84;42.98;98955.25;4972050;28;20451;-85
2022/03/17 13:47:11;;;;;;;;;;;;;;;11.82;45.18;98960.16;4989636;28;19926;-85
2022/03/17 13:49:39;;;;;;;;;;;;;;;11.80;44.98;98965.06;4981447;28;19926;-84
2022/03/17 13:52:10;;;;;;;;;;;;;;;11.57;44.11;98961.28;4966451;28;19985;-87
2022/03/17 13:54:39;;;;;;;;;;;;;;;11.57;43.58;98965.94;4984313;28;20372;-82
2022/03/17 13:57:07;;;;;;;;;;;;;;;11.43;43.50;98966.63;4967717;28;19968;-82
2022/03/17 13:59:35;;;;;;;;;;;;;;;11.04;44.43;98957.84;4953857;28;19926;-82
2022/03/17 14:02:12;;;;;;;;;;;;;;;11.19;45.64;98965.84;4973723;28;19923;-84
2022/03/17 14:04:52;;;;;;;;;;;;;;;10.99;44.78;98962.22;4968465;28;19926;-81
2022/03/17 14:07:46;;;;;;;;;;;;;;;11.05;44.15;98964.91;4973096;28;19934;-78
2022/03/17 14:10:15;;;;;;;;;;;;;;;11.14;45.01;98969.41;4972942;28;19937;-82
2022/03/17 14:12:43;;;;;;;;;;;;;;;11.33;45.32;98972.19;4992306;28;19926;-85
2022/03/17 14:15:11;;;;;;;;;;;;;;;11.34;43.95;98976.50;4989150;28;19941;-82
2022/03/17 14:17:41;;;;;;;;;;;;;;;11.51;45.02;98985.03;4974092;28;19934;-86
2022/03/17 14:20:09;;;;;;;;;;;;;;;11.54;43.93;98991.78;4960246;28;20296;-82
2022/03/17 14:25:23;;;;;;;;;;;;;;;11.46;43.34;98993.25;4969283;28;20336;-82
2022/03/17 14:27:51;;;;;;;;;;;;;;;11.35;44.19;98994.47;4994949;28;19926;-90
2022/03/17 14:30:19;;;;;;;;;;;;;;;11.45;43.97;98998.97;4957811;28;19932;-93
2022/03/17 14:32:49;;;;;;;;;;;;;;;11.46;43.78;99004.16;4976301;28;19936;-92
2022/03/17 14:35:17;;;;;;;;;;;;;;;11.36;44.27;99004.25;4961747;28;20421;-91
2022/03/17 14:37:45;;;;;;;;;;;;;;;11.18;44.82;98999.56;4986732;28;20017;-91
2022/03/17 14:40:13;;;;;;;;;;;;;;;11.28;44.82;98999.44;4974481;28;20017;-92
2022/03/17 14:42:42;;;;;;;;;;;;;;;11.28;44.74;99002.97;4969625;28;19926;-91
2022/03/17 14:45:10;;;;;;;;;;;;;;;11.12;43.83;99000.72;4974666;28;19934;-91
2022/03/17 14:47:38;;;;;;;;;;;;;;;11.11;45.11;99002.63;4946712;28;19949;-90
2022/03/17 14:50:10;;;;;;;;;;;;;;;11.25;44.80;99003.56;4995360;28;19930;-90
2022/03/17 14:52:38;;;;;;;;;;;;;;;11.07;45.27;99009.72;4980813;28;19965;-90
2022/03/17 15:08:48;;;;;;;;;;;;;;;11.43;44.28;99021.03;4991850;28;19926;-93
2022/03/17 15:11:44;;;;;;;;;;;;;;;11.60;44.58;99031.44;4990220;28;19926;-91
2022/03/17 15:14:13;;;;;;;;;;;;;;;11.79;44.17;99029.59;4964673;28;20032;-93
2022/03/17 15:16:41;;;;;;;;;;;;;;;11.74;43.28;99037.00;4974885;28;19932;-91
2022/03/17 15:19:09;;;;;;;;;;;;;;;11.60;42.78;99031.44;4995581;28;20012;-90
2022/03/17 15:21:38;;;;;;;;;;;;;;;11.74;42.73;99026.94;4990180;28;19926;-91
2022/03/17 15:24:06;;;;;;;;;;;;;;;11.76;41.91;99032.06;4979285;28;20017;-93
2022/03/17 15:26:34;;;;;;;;;;;;;;;11.54;42.27;99036.16;4975235;28;19930;-92
2022/03/17 15:31:49;;;;;;;;;;;;;;;11.48;44.58;99042.75;4974811;28;20273;-91
2022/03/17 15:34:17;;;;;;;;;;;;;;;11.74;42.71;99032.38;4965542;28;19940;-92
2022/03/17 15:36:47;;;;;;;;;;;;;;;11.79;43.98;99035.03;4979860;28;19929;-93
2022/03/17 15:39:15;;;;;;;;;;;;;;;11.66;42.14;99045.81;4967429;28;19994;-92
2022/03/17 15:41:46;;;;;;;;;;;;;;;11.57;43.12;99047.56;4988511;28;19926;-93
2022/03/17 15:44:20;;;;;;;;;;;;;;;11.48;43.04;99045.47;4986657;28;20277;-91
2022/03/17 15:49:40;;;;;;;;;;;;;;;11.40;44.23;99054.28;4987766;28;19926;-84
2022/03/17 15:52:08;;;;;;;;;;;;;;;11.46;44.39;99057.75;4979289;28;19980;-90
2022/03/17 15:54:36;;;;;;;;;;;;;;;11.39;43.38;99052.63;4965352;28;20020;-88
2022/03/17 16:01:01;;;;;;;;;;;;;;;11.41;42.34;99066.78;4987970;28;19952;-88
2022/03/17 16:03:32;;;;;;;;;;;;;;;11.25;43.24;99073.47;4959592;28;19929;-88
2022/03/17 16:06:00;;;;;;;;;;;;;;;11.24;42.83;99077.31;4982492;28;20406;-88
2022/03/17 16:08:32;;;;;;;;;;;;;;;11.00;42.69;99075.34;4990207;28;20028;-90
2022/03/17 16:16:32;;;;;;;;;;;;;;;10.76;44.88;99079.91;4998913;28;19930;-89
2022/03/17 16:19:00;;;;;;;;;;;;;;;10.75;45.33;99087.22;4997531;28;19957;-89
2022/03/17 16:21:56;;;;;;;;;;;;;;;10.87;45.88;99083.34;4969926;28;19930;-90
2022/03/17 16:24:25;;;;;;;;;;;;;;;10.90;45.41;99089.00;4985957;28;20037;-89
2022/03/17 16:26:53;;;;;;;;;;;;;;;11.19;44.75;99082.78;4971334;28;19937;-83
2022/03/17 16:29:21;;;;;;;;;;;;;;;11.31;43.52;99088.66;4988248;28;19936;-86
2022/03/17 16:31:50;;;;;;;;;;;;;;;11.31;45.19;99091.38;4970494;28;19980;-91
2022/03/17 16:34:20;;;;;;;;;;;;;;;11.25;44.16;99096.06;4971915;28;19926;-92
2022/03/17 16:36:48;;;;;;;;;;;;;;;10.95;45.19;99101.75;4989388;28;19926;-89
2022/03/17 16:39:20;;;;;;;;;;;;;;;10.98;45.29;99109.34;4974169;28;19926;-89
2022/03/17 16:41:49;;;;;;;;;;;;;;;11.06;45.25;99105.19;4976435;28;19957;-91
2022/03/17 16:44:16;;;;;;;;;;;;;;;11.24;43.77;99102.59;4960233;28;19925;-89
2022/03/17 16:46:46;;;;;;;;;;;;;;;11.27;44.14;99110.16;4955716;28;19930;-89
2022/03/17 16:49:17;;;;;;;;;;;;;;;11.28;43.87;99110.97;4993386;28;20458;-90
2022/03/17 16:51:45;;;;;;;;;;;;;;;11.10;45.33;99117.94;4997983;28;19934;-87
2022/03/17 16:54:17;;;;;;;;;;;;;;;11.10;45.90;99126.09;4976727;28;19926;-91
2022/03/17 16:56:46;;;;;;;;;;;;;;;11.01;45.73;99128.63;4960769;28;19932;-94
2022/03/17 16:59:17;;;;;;;;;;;;;;;10.95;45.96;99140.63;4976906;28;19965;-88
2022/03/17 17:01:47;;;;;;;;;;;;;;;10.91;45.71;99145.00;4974859;28;20431;-84
2022/03/17 17:04:17;;;;;;;;;;;;;;;10.64;46.14;99145.47;4987240;28;19981;-92
2022/03/17 17:06:47;;;;;;;;;;;;;;;10.59;46.29;99145.50;4977204;28;19932;-91
2022/03/17 17:09:15;;;;;;;;;;;;;;;10.59;46.06;99144.69;4991384;28;20285;-92
2022/03/17 17:11:47;;;;;;;;;;;;;;;10.55;46.40;99149.88;4972647;28;19932;-91
2022/03/17 17:14:18;;;;;;;;;;;;;;;10.84;46.80;99155.41;4977396;28;20016;-94
2022/03/17 17:16:49;;;;;;;;;;;;;;;10.71;45.90;99154.13;4971860;28;19926;-89
2022/03/17 17:19:23;;;;;;;;;;;;;;;10.77;46.43;99156.81;4974965;28;19942;-90
2022/03/17 17:21:51;;;;;;;;;;;;;;;10.92;46.36;99162.97;4972265;28;19938;-89
2022/03/17 17:32:36;;;;;;;;;;;;;;;10.67;47.20;99177.53;4979228;28;19957;-93
2022/03/17 17:35:08;;;;;;;;;;;;;;;10.41;46.98;99170.59;4964291;28;19926;-93
2022/03/17 17:37:36;;;;;;;;;;;;;;;10.35;47.41;99175.25;4978142;28;19925;-93
2022/03/17 17:40:04;;;;;;;;;;;;;;;10.24;47.47;99173.66;4978157;28;20216;-91
2022/03/17 17:42:33;;;;;;;;;;;;;;;10.23;48.01;99175.56;4975698;28;19936;-91
2022/03/17 17:45:01;;;;;;;;;;;;;;;10.41;47.71;99174.13;4975831;28;19925;-90
2022/03/17 17:47:29;;;;;;;;;;;;;;;10.25;47.23;99169.06;4972272;28;19926;-90
2022/03/17 17:49:59;;;;;;;;;;;;;;;10.05;48.05;99178.03;4972877;28;20298;-90
2022/03/17 17:52:28;;;;;;;;;;;;;;;9.97;48.67;99185.69;4989488;28;19926;-91
2022/03/17 17:54:56;;;;;;;;;;;;;;;10.09;49.10;99187.28;4975823;28;19976;-92
2022/03/17 17:57:24;;;;;;;;;;;;;;;10.05;48.66;99181.56;4986856;28;19932;-88
2022/03/17 17:59:53;;;;;;;;;;;;;;;9.99;48.91;99193.53;4988454;28;19934;-92